sensor_id;sensor_type;location;lat;lon;timestamp;temperature;humidity
314;DHT22;143;51.634;7.112;2023-03-05T00:01:31;6.20;99.90
314;DHT22;143;51.634;7.112;2023-03-05T00:04:01;6.20;99.90
314;DHT22;143;51.634;7.112;2023-03-05T00:06:28;6.20;99.90
314;DHT22;143;51.634;7.112;2023-03-05T00:08:55;6.00;99.90
314;DHT22;143;51.634;7.112;2023-03-05T00:11:23;6.20;1.00
314;DHT22;143;51.634;7.112;2023-03-05T00:13:54;6.10;1.00
314;DHT22;143;51.634;7.112;2023-03-05T00:16:20;5.90;1.00
314;DHT22;143;51.634;7.112;2023-03-05T00:18:46;6.00;1.00
314;DHT22;143;51.634;7.112;2023-03-05T00:21:23;5.90;1.00
314;DHT22;143;51.634;7.112;2023-03-05T00:23:50;5.90;1.00
314;DHT22;143;51.634;7.112;2023-03-05T00:26:18;5.90;1.00
314;DHT22;143;51.634;7.112;2023-03-05T00:28:43;6.20;1.00
314;DHT22;143;51.634;7.112;2023-03-05T00:31:18;6.30;1.00
314;DHT22;143;51.634;7.112;2023-03-05T00:33:44;5.90;1.00
314;DHT22;143;51.634;7.112;2023-03-05T00:36:10;6.00;1.00
314;DHT22;143;51.634;7.112;2023-03-05T00:38:36;5.90;1.00
314;DHT22;143;51.634;7.112;2023-03-05T00:41:02;6.20;1.00
314;DHT22;143;51.634;7.112;2023-03-05T00:43:28;6.10;1.00
314;DHT22;143;51.634;7.112;2023-03-05T00:45:54;5.80;1.00
314;DHT22;143;51.634;7.112;2023-03-05T00:48:20;6.10;1.00
314;DHT22;143;51.634;7.112;2023-03-05T00:50:47;6.10;1.00
314;DHT22;143;51.634;7.112;2023-03-05T00:53:13;6.10;1.00
314;DHT22;143;51.634;7.112;2023-03-05T00:55:38;5.90;1.00
314;DHT22;143;51.634;7.112;2023-03-05T00:58:04;5.90;1.00
314;DHT22;143;51.634;7.112;2023-03-05T01:00:30;5.80;1.00
314;DHT22;143;51.634;7.112;2023-03-05T01:02:55;5.60;1.00
314;DHT22;143;51.634;7.112;2023-03-05T01:05:21;5.60;1.00
314;DHT22;143;51.634;7.112;2023-03-05T01:07:47;5.70;1.00
314;DHT22;143;51.634;7.112;2023-03-05T01:10:13;5.60;1.00
314;DHT22;143;51.634;7.112;2023-03-05T01:12:39;5.80;1.00
314;DHT22;143;51.634;7.112;2023-03-05T01:15:05;6.10;1.00
314;DHT22;143;51.634;7.112;2023-03-05T01:17:31;5.80;1.00
314;DHT22;143;51.634;7.112;2023-03-05T01:19:57;6.00;1.00
314;DHT22;143;51.634;7.112;2023-03-05T01:22:22;6.00;1.00
314;DHT22;143;51.634;7.112;2023-03-05T01:24:48;5.60;1.00
314;DHT22;143;51.634;7.112;2023-03-05T01:27:14;5.60;1.00
314;DHT22;143;51.634;7.112;2023-03-05T01:29:39;5.70;1.00
314;DHT22;143;51.634;7.112;2023-03-05T01:32:05;5.80;1.00
314;DHT22;143;51.634;7.112;2023-03-05T01:34:31;5.50;1.00
314;DHT22;143;51.634;7.112;2023-03-05T01:36:57;5.80;1.00
314;DHT22;143;51.634;7.112;2023-03-05T01:39:22;5.80;1.00
314;DHT22;143;51.634;7.112;2023-03-05T01:41:48;5.60;1.00
314;DHT22;143;51.634;7.112;2023-03-05T01:44:21;5.60;1.00
314;DHT22;143;51.634;7.112;2023-03-05T01:46:47;5.50;1.00
314;DHT22;143;51.634;7.112;2023-03-05T01:49:28;5.70;1.00
314;DHT22;143;51.634;7.112;2023-03-05T01:54:27;5.80;1.00
314;DHT22;143;51.634;7.112;2023-03-05T01:56:56;5.70;1.00
314;DHT22;143;51.634;7.112;2023-03-05T01:59:24;5.90;1.00
314;DHT22;143;51.634;7.112;2023-03-05T02:01:54;5.80;1.00
314;DHT22;143;51.634;7.112;2023-03-05T02:04:24;5.80;1.00
314;DHT22;143;51.634;7.112;2023-03-05T02:06:51;5.90;1.00
314;DHT22;143;51.634;7.112;2023-03-05T02:09:19;5.80;1.00
314;DHT22;143;51.634;7.112;2023-03-05T02:11:48;6.00;1.00
314;DHT22;143;51.634;7.112;2023-03-05T02:14:13;6.00;1.00
314;DHT22;143;51.634;7.112;2023-03-05T02:16:40;5.70;1.00
314;DHT22;143;51.634;7.112;2023-03-05T02:19:08;5.90;1.00
314;DHT22;143;51.634;7.112;2023-03-05T02:21:46;5.80;1.00
314;DHT22;143;51.634;7.112;2023-03-05T02:24:30;5.60;1.00
314;DHT22;143;51.634;7.112;2023-03-05T02:26:57;5.70;1.00
314;DHT22;143;51.634;7.112;2023-03-05T02:29:23;5.80;1.00
314;DHT22;143;51.634;7.112;2023-03-05T02:31:49;5.60;1.00
314;DHT22;143;51.634;7.112;2023-03-05T02:34:15;5.60;1.00
314;DHT22;143;51.634;7.112;2023-03-05T02:36:40;5.60;1.00
314;DHT22;143;51.634;7.112;2023-03-05T02:39:06;5.60;1.00
314;DHT22;143;51.634;7.112;2023-03-05T02:41:34;5.60;1.00
314;DHT22;143;51.634;7.112;2023-03-05T02:43:59;5.70;1.00
314;DHT22;143;51.634;7.112;2023-03-05T02:46:25;5.80;1.00
314;DHT22;143;51.634;7.112;2023-03-05T02:48:51;5.60;1.00
314;DHT22;143;51.634;7.112;2023-03-05T02:51:17;5.60;1.00
314;DHT22;143;51.634;7.112;2023-03-05T02:53:42;5.60;1.00
314;DHT22;143;51.634;7.112;2023-03-05T02:56:08;5.60;1.00
314;DHT22;143;51.634;7.112;2023-03-05T02:58:34;5.60;1.00
314;DHT22;143;51.634;7.112;2023-03-05T03:01:00;5.50;1.00
314;DHT22;143;51.634;7.112;2023-03-05T03:03:25;5.50;1.00
314;DHT22;143;51.634;7.112;2023-03-05T03:05:51;5.40;1.00
314;DHT22;143;51.634;7.112;2023-03-05T03:08:17;5.40;1.00
314;DHT22;143;51.634;7.112;2023-03-05T03:10:42;5.20;1.00
314;DHT22;143;51.634;7.112;2023-03-05T03:13:08;5.40;1.00
314;DHT22;143;51.634;7.112;2023-03-05T03:15:34;5.20;1.00
314;DHT22;143;51.634;7.112;2023-03-05T03:17:59;5.30;1.00
314;DHT22;143;51.634;7.112;2023-03-05T03:20:25;5.40;1.00
314;DHT22;143;51.634;7.112;2023-03-05T03:22:51;5.10;1.00
314;DHT22;143;51.634;7.112;2023-03-05T03:25:20;5.20;1.00
314;DHT22;143;51.634;7.112;2023-03-05T03:27:47;5.30;1.00
314;DHT22;143;51.634;7.112;2023-03-05T03:30:14;5.30;1.00
314;DHT22;143;51.634;7.112;2023-03-05T03:32:40;5.40;1.00
314;DHT22;143;51.634;7.112;2023-03-05T03:35:06;5.60;1.00
314;DHT22;143;51.634;7.112;2023-03-05T03:37:32;5.60;1.00
314;DHT22;143;51.634;7.112;2023-03-05T03:39:58;5.60;1.00
314;DHT22;143;51.634;7.112;2023-03-05T03:42:24;5.50;1.00
314;DHT22;143;51.634;7.112;2023-03-05T03:44:49;5.50;1.00
314;DHT22;143;51.634;7.112;2023-03-05T03:47:16;5.40;1.00
314;DHT22;143;51.634;7.112;2023-03-05T03:49:41;5.60;1.00
314;DHT22;143;51.634;7.112;2023-03-05T03:52:07;5.60;1.00
314;DHT22;143;51.634;7.112;2023-03-05T03:54:34;5.70;1.00
314;DHT22;143;51.634;7.112;2023-03-05T03:56:59;5.40;1.00
314;DHT22;143;51.634;7.112;2023-03-05T03:59:25;5.20;1.00
314;DHT22;143;51.634;7.112;2023-03-05T04:01:51;5.40;1.00
314;DHT22;143;51.634;7.112;2023-03-05T04:04:16;5.40;1.00
314;DHT22;143;51.634;7.112;2023-03-05T04:06:42;5.30;1.00
314;DHT22;143;51.634;7.112;2023-03-05T04:09:08;5.30;1.00
314;DHT22;143;51.634;7.112;2023-03-05T04:11:35;5.40;1.00
314;DHT22;143;51.634;7.112;2023-03-05T04:14:01;5.30;1.00
314;DHT22;143;51.634;7.112;2023-03-05T04:16:26;5.60;1.00
314;DHT22;143;51.634;7.112;2023-03-05T04:18:52;5.20;1.00
314;DHT22;143;51.634;7.112;2023-03-05T04:21:18;5.40;1.00
314;DHT22;143;51.634;7.112;2023-03-05T04:23:44;5.30;1.00
314;DHT22;143;51.634;7.112;2023-03-05T04:26:09;5.30;1.00
314;DHT22;143;51.634;7.112;2023-03-05T04:28:35;5.10;1.00
314;DHT22;143;51.634;7.112;2023-03-05T04:31:02;5.30;1.00
314;DHT22;143;51.634;7.112;2023-03-05T04:33:28;5.30;1.00
314;DHT22;143;51.634;7.112;2023-03-05T04:35:53;5.00;1.00
314;DHT22;143;51.634;7.112;2023-03-05T04:38:19;5.40;1.00
314;DHT22;143;51.634;7.112;2023-03-05T04:40:45;4.90;1.00
314;DHT22;143;51.634;7.112;2023-03-05T04:43:11;5.20;1.00
314;DHT22;143;51.634;7.112;2023-03-05T04:45:41;5.10;1.00
314;DHT22;143;51.634;7.112;2023-03-05T04:48:08;5.10;1.00
314;DHT22;143;51.634;7.112;2023-03-05T04:50:34;5.10;1.00
314;DHT22;143;51.634;7.112;2023-03-05T04:52:59;5.20;1.00
314;DHT22;143;51.634;7.112;2023-03-05T04:55:25;5.40;1.00
314;DHT22;143;51.634;7.112;2023-03-05T04:57:51;5.10;1.00
314;DHT22;143;51.634;7.112;2023-03-05T05:00:18;5.00;1.00
314;DHT22;143;51.634;7.112;2023-03-05T05:02:45;5.00;1.00
314;DHT22;143;51.634;7.112;2023-03-05T05:05:13;5.00;1.00
314;DHT22;143;51.634;7.112;2023-03-05T05:07:39;5.00;1.00
314;DHT22;143;51.634;7.112;2023-03-05T05:10:05;5.20;1.00
314;DHT22;143;51.634;7.112;2023-03-05T05:12:33;5.10;1.00
314;DHT22;143;51.634;7.112;2023-03-05T05:14:58;5.10;1.00
314;DHT22;143;51.634;7.112;2023-03-05T05:17:24;5.20;1.00
314;DHT22;143;51.634;7.112;2023-03-05T05:19:50;5.20;1.00
314;DHT22;143;51.634;7.112;2023-03-05T05:22:16;4.80;1.00
314;DHT22;143;51.634;7.112;2023-03-05T05:24:42;5.10;1.00
314;DHT22;143;51.634;7.112;2023-03-05T05:27:08;5.10;1.00
314;DHT22;143;51.634;7.112;2023-03-05T05:29:33;4.90;1.00
314;DHT22;143;51.634;7.112;2023-03-05T05:31:59;5.00;1.00
314;DHT22;143;51.634;7.112;2023-03-05T05:34:25;5.00;1.00
314;DHT22;143;51.634;7.112;2023-03-05T05:36:51;4.90;1.00
314;DHT22;143;51.634;7.112;2023-03-05T05:39:17;4.70;1.00
314;DHT22;143;51.634;7.112;2023-03-05T05:41:43;4.60;1.00
314;DHT22;143;51.634;7.112;2023-03-05T05:44:09;4.90;1.00
314;DHT22;143;51.634;7.112;2023-03-05T05:46:35;4.80;1.00
314;DHT22;143;51.634;7.112;2023-03-05T05:49:00;4.60;1.00
314;DHT22;143;51.634;7.112;2023-03-05T05:51:26;4.50;1.00
314;DHT22;143;51.634;7.112;2023-03-05T05:53:52;4.70;1.00
314;DHT22;143;51.634;7.112;2023-03-05T05:56:18;4.80;1.00
314;DHT22;143;51.634;7.112;2023-03-05T05:58:45;4.50;1.00
314;DHT22;143;51.634;7.112;2023-03-05T06:03:40;4.60;1.00
314;DHT22;143;51.634;7.112;2023-03-05T06:06:10;4.50;1.00
314;DHT22;143;51.634;7.112;2023-03-05T06:08:37;4.70;1.00
314;DHT22;143;51.634;7.112;2023-03-05T06:11:04;4.70;1.00
314;DHT22;143;51.634;7.112;2023-03-05T06:13:30;4.70;1.00
314;DHT22;143;51.634;7.112;2023-03-05T06:16:01;4.70;1.00
314;DHT22;143;51.634;7.112;2023-03-05T06:18:27;4.50;1.00
314;DHT22;143;51.634;7.112;2023-03-05T06:20:55;4.80;1.00
314;DHT22;143;51.634;7.112;2023-03-05T06:23:21;4.90;1.00
314;DHT22;143;51.634;7.112;2023-03-05T06:25:46;4.70;1.00
314;DHT22;143;51.634;7.112;2023-03-05T06:28:12;4.70;1.00
314;DHT22;143;51.634;7.112;2023-03-05T06:30:38;4.60;1.00
314;DHT22;143;51.634;7.112;2023-03-05T06:33:03;4.90;1.00
314;DHT22;143;51.634;7.112;2023-03-05T06:35:31;5.10;1.00
314;DHT22;143;51.634;7.112;2023-03-05T06:37:56;5.10;1.00
314;DHT22;143;51.634;7.112;2023-03-05T06:40:22;5.00;1.00
314;DHT22;143;51.634;7.112;2023-03-05T06:42:48;5.00;1.00
314;DHT22;143;51.634;7.112;2023-03-05T06:45:14;5.00;1.00
314;DHT22;143;51.634;7.112;2023-03-05T06:47:39;5.10;1.00
314;DHT22;143;51.634;7.112;2023-03-05T06:50:05;4.80;1.00
314;DHT22;143;51.634;7.112;2023-03-05T06:52:31;5.10;1.00
314;DHT22;143;51.634;7.112;2023-03-05T06:54:57;5.10;1.00
314;DHT22;143;51.634;7.112;2023-03-05T06:57:22;4.80;1.00
314;DHT22;143;51.634;7.112;2023-03-05T06:59:48;5.00;1.00
314;DHT22;143;51.634;7.112;2023-03-05T07:02:14;5.00;1.00
314;DHT22;143;51.634;7.112;2023-03-05T07:04:40;5.20;1.00
314;DHT22;143;51.634;7.112;2023-03-05T07:07:06;5.10;1.00
314;DHT22;143;51.634;7.112;2023-03-05T07:09:32;5.10;1.00
314;DHT22;143;51.634;7.112;2023-03-05T07:11:58;5.20;1.00
314;DHT22;143;51.634;7.112;2023-03-05T07:14:23;5.40;1.00
314;DHT22;143;51.634;7.112;2023-03-05T07:16:49;5.30;1.00
314;DHT22;143;51.634;7.112;2023-03-05T07:19:15;5.20;1.00
314;DHT22;143;51.634;7.112;2023-03-05T07:21:40;5.20;1.00
314;DHT22;143;51.634;7.112;2023-03-05T07:24:07;5.20;1.00
314;DHT22;143;51.634;7.112;2023-03-05T07:26:33;5.30;1.00
314;DHT22;143;51.634;7.112;2023-03-05T07:29:00;5.30;1.00
314;DHT22;143;51.634;7.112;2023-03-05T07:31:26;5.30;1.00
314;DHT22;143;51.634;7.112;2023-03-05T07:33:55;5.40;1.00
314;DHT22;143;51.634;7.112;2023-03-05T07:36:21;5.30;1.00
314;DHT22;143;51.634;7.112;2023-03-05T07:38:47;5.10;1.00
314;DHT22;143;51.634;7.112;2023-03-05T07:41:15;5.50;1.00
314;DHT22;143;51.634;7.112;2023-03-05T07:43:47;5.40;1.00
314;DHT22;143;51.634;7.112;2023-03-05T07:46:15;5.20;1.00
314;DHT22;143;51.634;7.112;2023-03-05T07:48:41;5.40;1.00
314;DHT22;143;51.634;7.112;2023-03-05T07:51:12;5.30;1.00
314;DHT22;143;51.634;7.112;2023-03-05T07:53:39;5.40;1.00
314;DHT22;143;51.634;7.112;2023-03-05T07:56:05;5.20;1.00
314;DHT22;143;51.634;7.112;2023-03-05T07:58:31;5.30;1.00
314;DHT22;143;51.634;7.112;2023-03-05T08:00:57;5.20;1.00
314;DHT22;143;51.634;7.112;2023-03-05T08:03:23;5.40;1.00
314;DHT22;143;51.634;7.112;2023-03-05T08:05:48;5.30;1.00
314;DHT22;143;51.634;7.112;2023-03-05T08:08:14;5.40;1.00
314;DHT22;143;51.634;7.112;2023-03-05T08:10:40;5.20;1.00
314;DHT22;143;51.634;7.112;2023-03-05T08:13:06;5.40;1.00
314;DHT22;143;51.634;7.112;2023-03-05T08:15:32;5.30;1.00
314;DHT22;143;51.634;7.112;2023-03-05T08:17:59;5.20;1.00
314;DHT22;143;51.634;7.112;2023-03-05T08:20:25;5.40;1.00
314;DHT22;143;51.634;7.112;2023-03-05T08:22:50;5.30;1.00
314;DHT22;143;51.634;7.112;2023-03-05T08:25:16;5.30;1.00
314;DHT22;143;51.634;7.112;2023-03-05T08:27:43;5.40;1.00
314;DHT22;143;51.634;7.112;2023-03-05T08:30:12;5.50;1.00
314;DHT22;143;51.634;7.112;2023-03-05T08:32:39;5.40;1.00
314;DHT22;143;51.634;7.112;2023-03-05T08:35:05;5.30;1.00
314;DHT22;143;51.634;7.112;2023-03-05T08:37:32;5.50;1.00
314;DHT22;143;51.634;7.112;2023-03-05T08:39:58;5.40;1.00
314;DHT22;143;51.634;7.112;2023-03-05T08:42:24;5.40;1.00
314;DHT22;143;51.634;7.112;2023-03-05T08:44:50;5.20;1.00
314;DHT22;143;51.634;7.112;2023-03-05T08:47:16;5.40;1.00
314;DHT22;143;51.634;7.112;2023-03-05T08:49:43;5.20;1.00
314;DHT22;143;51.634;7.112;2023-03-05T08:52:09;5.50;1.00
314;DHT22;143;51.634;7.112;2023-03-05T08:54:36;5.60;1.00
314;DHT22;143;51.634;7.112;2023-03-05T08:57:02;5.60;1.00
314;DHT22;143;51.634;7.112;2023-03-05T08:59:28;5.60;1.00
314;DHT22;143;51.634;7.112;2023-03-05T09:01:58;5.60;1.00
314;DHT22;143;51.634;7.112;2023-03-05T09:04:24;5.60;1.00
314;DHT22;143;51.634;7.112;2023-03-05T09:06:50;5.60;1.00
314;DHT22;143;51.634;7.112;2023-03-05T09:09:16;5.60;1.00
314;DHT22;143;51.634;7.112;2023-03-05T09:11:45;5.60;1.00
314;DHT22;143;51.634;7.112;2023-03-05T09:14:10;5.60;1.00
314;DHT22;143;51.634;7.112;2023-03-05T09:16:36;5.60;1.00
314;DHT22;143;51.634;7.112;2023-03-05T09:19:04;5.70;1.00
314;DHT22;143;51.634;7.112;2023-03-05T09:21:30;5.50;1.00
314;DHT22;143;51.634;7.112;2023-03-05T09:23:56;5.70;1.00
314;DHT22;143;51.634;7.112;2023-03-05T09:26:24;5.80;1.00
314;DHT22;143;51.634;7.112;2023-03-05T09:28:49;5.80;1.00
314;DHT22;143;51.634;7.112;2023-03-05T09:31:15;5.80;1.00
314;DHT22;143;51.634;7.112;2023-03-05T09:33:41;5.70;1.00
314;DHT22;143;51.634;7.112;2023-03-05T09:36:20;5.80;1.00
314;DHT22;143;51.634;7.112;2023-03-05T09:38:46;6.00;1.00
314;DHT22;143;51.634;7.112;2023-03-05T09:44:10;5.90;1.00
314;DHT22;143;51.634;7.112;2023-03-05T09:46:52;5.90;1.00
314;DHT22;143;51.634;7.112;2023-03-05T09:51:53;5.80;1.00
314;DHT22;143;51.634;7.112;2023-03-05T09:54:43;5.90;1.00
314;DHT22;143;51.634;7.112;2023-03-05T09:57:44;6.10;1.00
314;DHT22;143;51.634;7.112;2023-03-05T10:00:35;6.10;1.00
314;DHT22;143;51.634;7.112;2023-03-05T10:03:19;6.20;1.00
314;DHT22;143;51.634;7.112;2023-03-05T10:09:06;6.10;1.00
314;DHT22;143;51.634;7.112;2023-03-05T10:11:59;6.20;1.00
314;DHT22;143;51.634;7.112;2023-03-05T10:14:32;6.60;1.00
314;DHT22;143;51.634;7.112;2023-03-05T10:25:30;7.00;1.00
314;DHT22;143;51.634;7.112;2023-03-05T10:28:08;6.70;1.00
314;DHT22;143;51.634;7.112;2023-03-05T10:31:03;6.70;1.00
314;DHT22;143;51.634;7.112;2023-03-05T10:44:32;7.00;1.00
314;DHT22;143;51.634;7.112;2023-03-05T10:47:00;7.10;1.00
314;DHT22;143;51.634;7.112;2023-03-05T10:49:34;7.00;1.00
314;DHT22;143;51.634;7.112;2023-03-05T10:52:10;7.00;1.00
314;DHT22;143;51.634;7.112;2023-03-05T10:54:40;6.90;1.00
314;DHT22;143;51.634;7.112;2023-03-05T10:57:28;7.10;1.00
314;DHT22;143;51.634;7.112;2023-03-05T11:02:30;7.30;1.00
314;DHT22;143;51.634;7.112;2023-03-05T11:04:56;7.30;1.00
314;DHT22;143;51.634;7.112;2023-03-05T11:12:29;7.80;1.00
314;DHT22;143;51.634;7.112;2023-03-05T11:17:45;8.30;1.00
314;DHT22;143;51.634;7.112;2023-03-05T11:26:03;8.30;1.00
314;DHT22;143;51.634;7.112;2023-03-05T11:28:31;8.20;99.90
314;DHT22;143;51.634;7.112;2023-03-05T11:33:25;8.20;99.90
314;DHT22;143;51.634;7.112;2023-03-05T11:36:09;8.10;99.90
314;DHT22;143;51.634;7.112;2023-03-05T11:41:33;8.10;99.90
314;DHT22;143;51.634;7.112;2023-03-05T11:44:00;8.20;99.90
314;DHT22;143;51.634;7.112;2023-03-05T11:46:30;8.10;99.90
314;DHT22;143;51.634;7.112;2023-03-05T11:48:59;7.80;99.90
314;DHT22;143;51.634;7.112;2023-03-05T11:51:40;7.80;99.90
314;DHT22;143;51.634;7.112;2023-03-05T11:54:13;7.80;99.90
314;DHT22;143;51.634;7.112;2023-03-05T11:56:41;7.90;99.90
314;DHT22;143;51.634;7.112;2023-03-05T11:59:21;7.80;99.90
314;DHT22;143;51.634;7.112;2023-03-05T12:01:53;7.80;99.90
314;DHT22;143;51.634;7.112;2023-03-05T12:04:20;7.90;99.90
314;DHT22;143;51.634;7.112;2023-03-05T12:06:54;7.60;99.90
314;DHT22;143;51.634;7.112;2023-03-05T12:09:31;7.70;99.90
314;DHT22;143;51.634;7.112;2023-03-05T12:12:36;7.80;99.90
314;DHT22;143;51.634;7.112;2023-03-05T12:22:55;7.70;99.90
314;DHT22;143;51.634;7.112;2023-03-05T12:25:30;8.00;99.90
314;DHT22;143;51.634;7.112;2023-03-05T12:27:56;7.80;99.90
314;DHT22;143;51.634;7.112;2023-03-05T12:33:03;8.40;99.90
314;DHT22;143;51.634;7.112;2023-03-05T12:35:39;8.30;99.90
314;DHT22;143;51.634;7.112;2023-03-05T12:38:28;8.50;99.90
314;DHT22;143;51.634;7.112;2023-03-05T12:46:41;8.90;99.90
314;DHT22;143;51.634;7.112;2023-03-05T12:51:44;9.00;99.90
314;DHT22;143;51.634;7.112;2023-03-05T12:54:29;9.20;99.90
314;DHT22;143;51.634;7.112;2023-03-05T12:56:58;9.40;99.90
314;DHT22;143;51.634;7.112;2023-03-05T12:59:40;9.30;99.90
314;DHT22;143;51.634;7.112;2023-03-05T13:02:32;9.40;99.90
314;DHT22;143;51.634;7.112;2023-03-05T13:05:07;9.60;99.90
314;DHT22;143;51.634;7.112;2023-03-05T13:07:39;9.70;72.40
314;DHT22;143;51.634;7.112;2023-03-05T13:10:05;9.70;23.70
314;DHT22;143;51.634;7.112;2023-03-05T13:12:31;10.00;9.40
314;DHT22;143;51.634;7.112;2023-03-05T13:15:04;9.90;1.00
314;DHT22;143;51.634;7.112;2023-03-05T13:17:31;9.80;1.00
314;DHT22;143;51.634;7.112;2023-03-05T13:19:59;9.90;1.00
314;DHT22;143;51.634;7.112;2023-03-05T13:22:25;9.90;1.00
314;DHT22;143;51.634;7.112;2023-03-05T13:25:12;9.90;1.00
314;DHT22;143;51.634;7.112;2023-03-05T13:27:38;10.10;1.00
314;DHT22;143;51.634;7.112;2023-03-05T13:30:04;10.00;1.00
314;DHT22;143;51.634;7.112;2023-03-05T13:32:31;10.00;1.00
314;DHT22;143;51.634;7.112;2023-03-05T13:34:59;9.90;1.00
314;DHT22;143;51.634;7.112;2023-03-05T13:37:28;10.00;1.00
314;DHT22;143;51.634;7.112;2023-03-05T13:39:59;9.90;1.00
314;DHT22;143;51.634;7.112;2023-03-05T13:42:31;10.00;1.00
314;DHT22;143;51.634;7.112;2023-03-05T13:45:04;9.70;1.00
314;DHT22;143;51.634;7.112;2023-03-05T13:47:33;9.30;1.00
314;DHT22;143;51.634;7.112;2023-03-05T13:50:07;9.00;1.00
314;DHT22;143;51.634;7.112;2023-03-05T13:52:38;9.10;1.00
314;DHT22;143;51.634;7.112;2023-03-05T13:55:11;9.30;1.00
314;DHT22;143;51.634;7.112;2023-03-05T13:57:43;9.20;1.00
314;DHT22;143;51.634;7.112;2023-03-05T14:00:34;9.20;1.00
314;DHT22;143;51.634;7.112;2023-03-05T14:03:19;9.30;1.00
314;DHT22;143;51.634;7.112;2023-03-05T14:05:45;9.10;1.00
314;DHT22;143;51.634;7.112;2023-03-05T14:08:21;9.00;1.00
314;DHT22;143;51.634;7.112;2023-03-05T14:10:48;9.00;1.00
314;DHT22;143;51.634;7.112;2023-03-05T14:13:23;8.80;1.00
314;DHT22;143;51.634;7.112;2023-03-05T14:19:00;8.60;1.00
314;DHT22;143;51.634;7.112;2023-03-05T14:21:45;8.50;1.00
314;DHT22;143;51.634;7.112;2023-03-05T14:24:13;8.50;1.00
314;DHT22;143;51.634;7.112;2023-03-05T14:27:03;8.50;1.00
314;DHT22;143;51.634;7.112;2023-03-05T14:29:33;8.60;1.00
314;DHT22;143;51.634;7.112;2023-03-05T14:32:00;8.90;1.00
314;DHT22;143;51.634;7.112;2023-03-05T14:37:01;8.90;1.00
314;DHT22;143;51.634;7.112;2023-03-05T14:39:44;9.20;1.00
314;DHT22;143;51.634;7.112;2023-03-05T14:45:20;9.20;1.00
314;DHT22;143;51.634;7.112;2023-03-05T14:47:44;9.20;1.00
314;DHT22;143;51.634;7.112;2023-03-05T14:50:22;9.10;1.00
314;DHT22;143;51.634;7.112;2023-03-05T14:52:56;8.60;1.00
314;DHT22;143;51.634;7.112;2023-03-05T14:55:25;8.70;1.00
314;DHT22;143;51.634;7.112;2023-03-05T14:57:54;8.60;1.00
314;DHT22;143;51.634;7.112;2023-03-05T15:00:25;8.50;1.00
314;DHT22;143;51.634;7.112;2023-03-05T15:02:52;8.70;1.00
314;DHT22;143;51.634;7.112;2023-03-05T15:05:19;8.80;1.00
314;DHT22;143;51.634;7.112;2023-03-05T15:07:45;9.10;1.00
314;DHT22;143;51.634;7.112;2023-03-05T15:10:17;8.70;1.00
314;DHT22;143;51.634;7.112;2023-03-05T15:12:43;9.00;1.00
314;DHT22;143;51.634;7.112;2023-03-05T15:15:16;9.10;1.00
314;DHT22;143;51.634;7.112;2023-03-05T15:17:44;9.10;1.00
314;DHT22;143;51.634;7.112;2023-03-05T15:20:17;8.90;1.00
314;DHT22;143;51.634;7.112;2023-03-05T15:22:43;8.70;1.00
314;DHT22;143;51.634;7.112;2023-03-05T15:25:09;8.80;1.00
314;DHT22;143;51.634;7.112;2023-03-05T15:27:35;8.50;1.00
314;DHT22;143;51.634;7.112;2023-03-05T15:30:01;8.60;1.00
314;DHT22;143;51.634;7.112;2023-03-05T15:32:27;8.50;1.00
314;DHT22;143;51.634;7.112;2023-03-05T15:34:54;8.50;1.00
314;DHT22;143;51.634;7.112;2023-03-05T15:37:21;8.10;1.00
314;DHT22;143;51.634;7.112;2023-03-05T15:39:47;8.50;1.00
314;DHT22;143;51.634;7.112;2023-03-05T15:42:13;8.20;1.00
314;DHT22;143;51.634;7.112;2023-03-05T15:44:39;8.50;1.00
314;DHT22;143;51.634;7.112;2023-03-05T15:47:05;8.50;1.00
314;DHT22;143;51.634;7.112;2023-03-05T15:49:31;8.50;1.00
314;DHT22;143;51.634;7.112;2023-03-05T15:51:57;8.40;1.00
314;DHT22;143;51.634;7.112;2023-03-05T15:54:23;8.40;1.00
314;DHT22;143;51.634;7.112;2023-03-05T15:56:49;8.40;1.00
314;DHT22;143;51.634;7.112;2023-03-05T15:59:16;8.40;1.00
314;DHT22;143;51.634;7.112;2023-03-05T16:01:48;8.50;1.00
314;DHT22;143;51.634;7.112;2023-03-05T16:04:14;8.50;1.00
314;DHT22;143;51.634;7.112;2023-03-05T16:06:40;8.20;1.00
314;DHT22;143;51.634;7.112;2023-03-05T16:09:07;8.10;1.00
314;DHT22;143;51.634;7.112;2023-03-05T16:11:35;8.20;1.00
314;DHT22;143;51.634;7.112;2023-03-05T16:14:04;8.10;1.00
314;DHT22;143;51.634;7.112;2023-03-05T16:16:33;8.20;1.00
314;DHT22;143;51.634;7.112;2023-03-05T16:18:59;8.00;2.80
314;DHT22;143;51.634;7.112;2023-03-05T16:21:25;8.10;13.20
314;DHT22;143;51.634;7.112;2023-03-05T16:23:50;8.20;15.60
314;DHT22;143;51.634;7.112;2023-03-05T16:26:16;8.20;18.50
314;DHT22;143;51.634;7.112;2023-03-05T16:28:43;8.10;23.90
314;DHT22;143;51.634;7.112;2023-03-05T16:31:09;7.90;28.60
314;DHT22;143;51.634;7.112;2023-03-05T16:33:34;8.10;30.70
314;DHT22;143;51.634;7.112;2023-03-05T16:38:48;8.10;35.00
314;DHT22;143;51.634;7.112;2023-03-05T16:41:14;7.90;33.40
314;DHT22;143;51.634;7.112;2023-03-05T16:43:41;7.90;34.70
314;DHT22;143;51.634;7.112;2023-03-05T16:46:08;7.70;42.40
314;DHT22;143;51.634;7.112;2023-03-05T16:48:34;7.80;52.40
314;DHT22;143;51.634;7.112;2023-03-05T16:51:00;7.90;58.00
314;DHT22;143;51.634;7.112;2023-03-05T16:53:26;7.60;72.80
314;DHT22;143;51.634;7.112;2023-03-05T16:55:51;7.80;79.90
314;DHT22;143;51.634;7.112;2023-03-05T16:58:17;7.70;90.90
314;DHT22;143;51.634;7.112;2023-03-05T17:00:43;7.80;94.90
314;DHT22;143;51.634;7.112;2023-03-05T17:03:08;7.60;99.90
314;DHT22;143;51.634;7.112;2023-03-05T17:05:35;7.70;99.90
314;DHT22;143;51.634;7.112;2023-03-05T17:08:01;7.60;99.90
314;DHT22;143;51.634;7.112;2023-03-05T17:10:29;7.70;99.90
314;DHT22;143;51.634;7.112;2023-03-05T17:12:55;7.50;99.90
314;DHT22;143;51.634;7.112;2023-03-05T17:15:21;7.30;99.90
314;DHT22;143;51.634;7.112;2023-03-05T17:17:47;7.60;99.90
314;DHT22;143;51.634;7.112;2023-03-05T17:20:12;7.40;99.90
314;DHT22;143;51.634;7.112;2023-03-05T17:22:38;7.30;99.90
314;DHT22;143;51.634;7.112;2023-03-05T17:25:04;7.40;99.90
314;DHT22;143;51.634;7.112;2023-03-05T17:27:30;7.30;99.90
314;DHT22;143;51.634;7.112;2023-03-05T17:29:56;7.60;99.90
314;DHT22;143;51.634;7.112;2023-03-05T17:32:22;7.70;99.90
314;DHT22;143;51.634;7.112;2023-03-05T17:34:52;7.30;99.90
314;DHT22;143;51.634;7.112;2023-03-05T17:37:18;7.60;99.90
314;DHT22;143;51.634;7.112;2023-03-05T17:39:44;7.30;99.90
314;DHT22;143;51.634;7.112;2023-03-05T17:42:09;7.50;99.90
314;DHT22;143;51.634;7.112;2023-03-05T17:44:35;7.50;99.90
314;DHT22;143;51.634;7.112;2023-03-05T17:47:01;7.50;99.90
314;DHT22;143;51.634;7.112;2023-03-05T17:49:27;7.30;99.90
314;DHT22;143;51.634;7.112;2023-03-05T17:51:52;7.70;99.90
314;DHT22;143;51.634;7.112;2023-03-05T17:54:18;7.60;99.90
314;DHT22;143;51.634;7.112;2023-03-05T17:56:44;7.70;99.90
314;DHT22;143;51.634;7.112;2023-03-05T17:59:09;7.60;99.90
314;DHT22;143;51.634;7.112;2023-03-05T18:01:35;7.60;99.90
314;DHT22;143;51.634;7.112;2023-03-05T18:04:01;7.70;99.90
314;DHT22;143;51.634;7.112;2023-03-05T18:06:27;7.60;99.90
314;DHT22;143;51.634;7.112;2023-03-05T18:08:53;7.60;99.90
314;DHT22;143;51.634;7.112;2023-03-05T18:11:20;7.50;99.90
314;DHT22;143;51.634;7.112;2023-03-05T18:13:45;7.30;99.90
314;DHT22;143;51.634;7.112;2023-03-05T18:16:11;7.50;99.90
314;DHT22;143;51.634;7.112;2023-03-05T18:18:41;7.30;99.90
314;DHT22;143;51.634;7.112;2023-03-05T18:21:07;7.20;99.90
314;DHT22;143;51.634;7.112;2023-03-05T18:23:33;7.20;99.90
314;DHT22;143;51.634;7.112;2023-03-05T18:25:58;7.30;99.90
314;DHT22;143;51.634;7.112;2023-03-05T18:28:24;7.40;99.90
314;DHT22;143;51.634;7.112;2023-03-05T18:30:50;7.30;99.90
314;DHT22;143;51.634;7.112;2023-03-05T18:33:21;7.10;99.90
314;DHT22;143;51.634;7.112;2023-03-05T18:35:49;6.90;99.90
314;DHT22;143;51.634;7.112;2023-03-05T18:38:27;7.00;99.90